Weather observations for the past three days for
Miami, Kendall-Tamiami Executive Airport
Imperial (Metric)
Date Time (edt) Wind (mph) Vis. (mi.) Weather Sky Cond. Temperature (ºF) Relative Humidity Wind Chill (°F) Heat Index (°F) Pressure Precipitation (in)
Air Dwpt 6 hour altimeter (in) sea level (mb) 1 hr 3 hr 6 hr
Max. Min.
10 03:53 Calm 10.00 Fair CLR 75 73 94% 73 29.96 1014.4
10 02:53 Calm 9.00 Fair CLR 73 72 96% 29.96 1014.4
10 01:53 Calm 5.00 Fog/Mist CLR 73.9 72 84 73 94% 29.97 1014.8
10 00:53 Calm 10.00 Fair CLR 73 70 90% 29.99 1015.3
09 23:53 SE 5 10.00 Fair CLR 79 72 79% 82 29.98 1015.2
09 22:53 Calm 10.00 Fair CLR 80.1 71.1 74% 84 29.98 1015.2
09 21:53 S 3 10.00 Fair CLR 81 71.1 72% 85 29.96 1014.5
09 20:53 S 5 10.00 Fair CLR 82 72 72% 87 29.93 1013.5
09 19:53 S 9 10.00 Fair CLR 84 73 93 84 70% 90 29.9 1012.6
09 18:53 S 10 G 20 10.00 Fair CLR 86 72 63% 92 29.89 1012.2
09 17:53 S 10 10.00 Fair CLR 89.1 70 53% 94 29.89 1012.1
09 16:53 SW 10 10.00 Fair CLR 90 69.1 50% 95 29.89 1012.0
09 15:53 S 9 G 17 10.00 A Few Clouds FEW046 91.9 71.1 51% 99 29.9 1012.4
09 14:53 S 13 10.00 Partly Cloudy SCT047 91 71.1 52% 98 29.91 1012.8
09 13:53 S 10 G 17 10.00 Partly Cloudy SCT047 93 71.1 93 77 49% 100 29.93 1013.5
09 12:53 S 10 10.00 Mostly Cloudy SCT045 BKN050 91 70 50% 97 29.95 1014.0
09 11:53 Vrbl 7 10.00 Partly Cloudy SCT040 89.1 72 57% 96 29.96 1014.6
09 10:53 Vrbl 6 10.00 Fair CLR 88 73 61% 96 29.96 1014.6
09 09:53 SE 9 10.00 A Few Clouds FEW022 84 75 74% 92 29.96 1014.3
09 08:53 Calm 10.00 Fair CLR 82 73.9 77% 88 29.96 1014.3
09 07:53 Calm 10.00 Fair CLR 78.8 0 78.1 68 0% 29.95 1014.3
09 06:53 Calm 4.00 Fog/Mist CLR 69.1 69.1 100% 29.94 1013.8
09 05:53 Calm 5.00 Fog/Mist CLR 69.1 69.1 100% 29.93 1013.4
09 04:53 NW 5 6.00 Fog/Mist CLR 70 69.1 97% 29.93 1013.4
09 03:53 Calm 8.00 Fair CLR 70 69.1 97% 29.93 1013.4
09 02:53 Calm 8.00 Fair CLR 72 70 94% 29.94 1013.8
09 01:53 Calm 10.00 Fair CLR 73 70 82 73 90% 29.95 1014.0
09 00:53 SE 3 10.00 Fair CLR 78.1 73 85% 81 29.96 1014.5
08 23:53 E 6 10.00 Fair CLR 75 71.1 88% 75 29.97 1014.7
08 22:53 E 5 10.00 Fair CLR 79 71.1 77% 82 29.97 1014.7
08 21:53 E 5 10.00 Fair CLR 79 71.1 77% 82 29.95 1014.3
08 20:53 SE 6 10.00 Fair CLR 81 71.1 72% 85 29.93 1013.5
08 19:53 SE 7 10.00 Fair CLR 82 70 93 82 67% 86 29.92 1013.0
08 18:53 E 13 10.00 Fair CLR 84 69.1 61% 88 29.91 1012.6
08 17:53 SE 12 10.00 Fair CLR 87.1 69.1 55% 91 29.9 1012.4
08 16:53 SE 13 10.00 Fair CLR 88 66 48% 90 29.9 1012.4
08 15:53 SE 14 10.00 Fair CLR 91 66 44% 94 29.91 1012.9
08 14:53 E 12 G 20 10.00 Fair CLR 91.9 66.9 44% 95 29.93 1013.4
08 13:53 Calm 10.00 Fair CLR 93 59 93 69.1 32% 92 29.95 1014.2
08 12:53 Calm 10.00 Fair CLR 91 59 34% 90 29.98 1015.1
08 11:53 N 8 10.00 Fair CLR 90 63 41% 91 30.01 1016.0
08 10:53 NE 8 10.00 Fair CLR 86 64.9 49% 88 30.01 1016.2
08 09:53 N 7 10.00 Fair CLR 82.9 68 61% 86 30.02 1016.3
08 08:53 N 7 10.00 Fair CLR 78.1 71.1 79% 80 30.01 1016.0
08 07:53 NW 6 3.00 Fog/Mist CLR 69.8 0 71.1 66 0% 29.99 1015.6
08 06:53 Calm 0.25 Fog CLR 66 66 100% 29.97 1014.7
08 05:53 W 3 2.50 Fog/Mist CLR 66.9 66.9 100% 29.95 1014.2
08 04:53 W 5 10.00 Fair CLR 69.1 68 96% 29.95 1014.2
08 03:53 Calm 8.00 Fair CLR 69.1 69.1 100% 29.95 1014.1
08 02:53 Calm 8.00 Fair CLR 70 69.1 97% 29.95 1014.0
08 01:53 W 5 10.00 Fair CLR 71.1 71.1 84.9 71.1 100% 29.96 1014.6
08 00:53 SW 5 10.00 Fair CLR 75 71.1 88% 75 29.97 1014.8
07 23:53 SW 3 10.00 Fair CLR 75 71.1 88% 75 29.98 1015.0
07 22:53 W 8 10.00 Fair CLR 75.9 70 82% 77 29.97 1014.9
07 21:53 W 6 10.00 Fair CLR 79 68 69% 81 29.96 1014.6
07 20:53 W 3 10.00 Fair CLR 81 61 51% 82 29.95 1014.1
07 19:53 W 6 10.00 Fair CLR 84 62.1 93 84 48% 85 29.94 1013.7
07 18:53 S 10 10.00 Fair CLR 88 71.1 57% 94 29.93 1013.3
07 17:53 S 10 G 20 10.00 Fair CLR 90 70 52% 95 29.92 1013.1
07 16:53 SE 14 10.00 Fair CLR 90 71.1 54% 96 29.93 1013.3
07 15:53 SE 14 10.00 Fair CLR 91 72 54% 99 29.94 1013.8
07 14:53 SE 13 10.00 A Few Clouds FEW046 FEW060 91 72 54% 99 29.96 1014.5
07 13:53 NW 10 10.00 Fair CLR 93.9 64.9 93.9 73 38% 96 29.98 1015.3
07 12:53 S 7 10.00 Fair CLR 91 62.1 38% 92 30 1015.9
07 11:53 Vrbl 3 10.00 Fair CLR 87.1 66 50% 89 30.02 1016.6
07 10:53 Vrbl 5 10.00 Fair CLR 84.9 69.1 59% 89 30.04 1017.1
07 09:53 S 5 10.00 Fair CLR 82 71.1 69% 86 30.04 1017.0
07 08:53 Calm 10.00 Fair CLR 79 73.9 85% 83 30.03 1016.9
07 07:53 W 5 10.00 Fair CLR 73 73 73.9 66.9 100% 30.02 1016.4
07 06:53 Calm 10.00 Fair CLR 66.9 66.9 100% 29.99 1015.6
07 05:53 Calm 10.00 Fair CLR 66.9 66.9 100% 29.97 1014.9
07 04:53 Calm 10.00 Fair CLR 68 66.9 96% 29.97 1014.9
Date Time (edt) Wind (mph) Vis. (mi.) Weather Sky Cond. Air Dwpt Max. Min. Relative Humidity Wind Chill (°F) Heat Index (°F) altimeter (in) sea level (mb) 1 hr 3 hr 6 hr
6 hour
Temperature (ºF) Pressure Precipitation (in)